sensor_id;sensor_type;location;lat;lon;timestamp;P1;durP1;ratioP1;P2;durP2;ratioP2
40787;SDS011;26497;52.494;7.546;2023-12-04T00:01:13;263.23;;;245.50;;
40787;SDS011;26497;52.494;7.546;2023-12-04T00:03:41;261.85;;;243.80;;
40787;SDS011;26497;52.494;7.546;2023-12-04T00:06:09;251.50;;;234.70;;
40787;SDS011;26497;52.494;7.546;2023-12-04T00:08:39;258.23;;;240.18;;
40787;SDS011;26497;52.494;7.546;2023-12-04T00:11:06;258.70;;;240.13;;
40787;SDS011;26497;52.494;7.546;2023-12-04T00:13:34;247.98;;;231.73;;
40787;SDS011;26497;52.494;7.546;2023-12-04T00:16:01;255.55;;;238.25;;
40787;SDS011;26497;52.494;7.546;2023-12-04T00:18:28;254.45;;;237.38;;
40787;SDS011;26497;52.494;7.546;2023-12-04T00:20:55;251.93;;;234.02;;
40787;SDS011;26497;52.494;7.546;2023-12-04T00:23:22;251.63;;;234.10;;
40787;SDS011;26497;52.494;7.546;2023-12-04T00:25:50;254.15;;;235.80;;
40787;SDS011;26497;52.494;7.546;2023-12-04T00:28:17;247.45;;;230.70;;
40787;SDS011;26497;52.494;7.546;2023-12-04T00:30:45;251.27;;;234.40;;
40787;SDS011;26497;52.494;7.546;2023-12-04T00:33:12;249.02;;;231.57;;
40787;SDS011;26497;52.494;7.546;2023-12-04T00:35:39;243.73;;;227.27;;
40787;SDS011;26497;52.494;7.546;2023-12-04T00:38:06;238.27;;;221.30;;
40787;SDS011;26497;52.494;7.546;2023-12-04T00:40:33;241.40;;;224.38;;
40787;SDS011;26497;52.494;7.546;2023-12-04T00:43:02;240.45;;;223.93;;
40787;SDS011;26497;52.494;7.546;2023-12-04T00:45:29;241.52;;;224.93;;
40787;SDS011;26497;52.494;7.546;2023-12-04T00:47:56;232.60;;;216.57;;
40787;SDS011;26497;52.494;7.546;2023-12-04T00:50:23;235.60;;;219.13;;
40787;SDS011;26497;52.494;7.546;2023-12-04T00:52:50;239.00;;;222.90;;
40787;SDS011;26497;52.494;7.546;2023-12-04T00:55:17;231.75;;;215.93;;
40787;SDS011;26497;52.494;7.546;2023-12-04T00:57:45;237.80;;;221.52;;
40787;SDS011;26497;52.494;7.546;2023-12-04T01:00:14;234.55;;;218.52;;
40787;SDS011;26497;52.494;7.546;2023-12-04T01:02:42;232.27;;;216.05;;
40787;SDS011;26497;52.494;7.546;2023-12-04T01:05:09;230.70;;;214.02;;
40787;SDS011;26497;52.494;7.546;2023-12-04T01:07:36;1999.90;;;999.90;;
40787;SDS011;26497;52.494;7.546;2023-12-04T01:10:03;1999.90;;;999.90;;
40787;SDS011;26497;52.494;7.546;2023-12-04T01:12:31;1999.90;;;999.90;;
40787;SDS011;26497;52.494;7.546;2023-12-04T01:14:58;1999.90;;;999.90;;
40787;SDS011;26497;52.494;7.546;2023-12-04T01:17:28;1999.90;;;999.90;;
40787;SDS011;26497;52.494;7.546;2023-12-04T01:19:55;1999.90;;;999.90;;
40787;SDS011;26497;52.494;7.546;2023-12-04T01:22:22;1999.90;;;999.90;;
40787;SDS011;26497;52.494;7.546;2023-12-04T01:24:49;1999.90;;;999.90;;
40787;SDS011;26497;52.494;7.546;2023-12-04T01:27:16;1999.90;;;999.90;;
40787;SDS011;26497;52.494;7.546;2023-12-04T01:29:43;1999.90;;;999.90;;
40787;SDS011;26497;52.494;7.546;2023-12-04T01:32:10;1999.90;;;999.90;;
40787;SDS011;26497;52.494;7.546;2023-12-04T01:34:39;1999.90;;;999.90;;
40787;SDS011;26497;52.494;7.546;2023-12-04T01:37:06;1999.90;;;999.90;;
40787;SDS011;26497;52.494;7.546;2023-12-04T01:39:33;1999.90;;;999.90;;
40787;SDS011;26497;52.494;7.546;2023-12-04T01:42:01;1999.90;;;999.90;;
40787;SDS011;26497;52.494;7.546;2023-12-04T01:44:29;1999.90;;;999.90;;
40787;SDS011;26497;52.494;7.546;2023-12-04T01:46:56;1999.90;;;999.90;;
40787;SDS011;26497;52.494;7.546;2023-12-04T01:49:22;1999.90;;;999.90;;
40787;SDS011;26497;52.494;7.546;2023-12-04T01:51:51;1999.90;;;999.90;;
40787;SDS011;26497;52.494;7.546;2023-12-04T01:54:19;1999.90;;;999.90;;
40787;SDS011;26497;52.494;7.546;2023-12-04T01:56:46;1999.90;;;999.90;;
40787;SDS011;26497;52.494;7.546;2023-12-04T01:59:14;1999.90;;;999.90;;
40787;SDS011;26497;52.494;7.546;2023-12-04T02:01:41;1999.90;;;999.90;;
40787;SDS011;26497;52.494;7.546;2023-12-04T02:04:08;1999.90;;;999.90;;
40787;SDS011;26497;52.494;7.546;2023-12-04T02:06:36;1999.90;;;999.90;;
40787;SDS011;26497;52.494;7.546;2023-12-04T02:09:04;1999.90;;;999.90;;
40787;SDS011;26497;52.494;7.546;2023-12-04T02:11:36;1999.90;;;999.90;;
40787;SDS011;26497;52.494;7.546;2023-12-04T02:14:04;1999.90;;;999.90;;
40787;SDS011;26497;52.494;7.546;2023-12-04T02:16:31;1999.90;;;999.90;;
40787;SDS011;26497;52.494;7.546;2023-12-04T02:19:01;1999.90;;;999.90;;
40787;SDS011;26497;52.494;7.546;2023-12-04T02:21:29;1999.90;;;999.90;;
40787;SDS011;26497;52.494;7.546;2023-12-04T02:23:58;1999.90;;;999.90;;
40787;SDS011;26497;52.494;7.546;2023-12-04T02:26:27;1999.90;;;999.90;;
40787;SDS011;26497;52.494;7.546;2023-12-04T02:28:58;1999.90;;;999.90;;
40787;SDS011;26497;52.494;7.546;2023-12-04T02:31:31;1999.90;;;999.90;;
40787;SDS011;26497;52.494;7.546;2023-12-04T02:34:02;1999.90;;;999.90;;
40787;SDS011;26497;52.494;7.546;2023-12-04T02:36:32;1999.90;;;999.90;;
40787;SDS011;26497;52.494;7.546;2023-12-04T02:39:03;1999.90;;;999.90;;
40787;SDS011;26497;52.494;7.546;2023-12-04T02:41:31;1999.90;;;999.90;;
40787;SDS011;26497;52.494;7.546;2023-12-04T02:43:58;1999.90;;;999.90;;
40787;SDS011;26497;52.494;7.546;2023-12-04T02:46:26;1999.90;;;999.90;;
40787;SDS011;26497;52.494;7.546;2023-12-04T02:48:53;1999.90;;;999.90;;
40787;SDS011;26497;52.494;7.546;2023-12-04T02:51:20;1999.90;;;999.90;;
40787;SDS011;26497;52.494;7.546;2023-12-04T02:53:47;1999.90;;;999.90;;
40787;SDS011;26497;52.494;7.546;2023-12-04T02:56:15;1999.90;;;999.90;;
40787;SDS011;26497;52.494;7.546;2023-12-04T02:58:42;1999.90;;;999.90;;
40787;SDS011;26497;52.494;7.546;2023-12-04T03:01:09;1999.90;;;999.90;;
40787;SDS011;26497;52.494;7.546;2023-12-04T03:03:36;1999.90;;;999.90;;
40787;SDS011;26497;52.494;7.546;2023-12-04T03:06:03;1999.90;;;999.90;;
40787;SDS011;26497;52.494;7.546;2023-12-04T03:08:32;1999.90;;;999.90;;
40787;SDS011;26497;52.494;7.546;2023-12-04T03:11:00;1999.90;;;999.90;;
40787;SDS011;26497;52.494;7.546;2023-12-04T03:13:29;1999.90;;;999.90;;
40787;SDS011;26497;52.494;7.546;2023-12-04T03:15:56;1999.90;;;999.90;;
40787;SDS011;26497;52.494;7.546;2023-12-04T03:18:23;1999.90;;;999.90;;
40787;SDS011;26497;52.494;7.546;2023-12-04T03:20:51;1999.90;;;999.90;;
40787;SDS011;26497;52.494;7.546;2023-12-04T03:23:18;1999.90;;;999.90;;
40787;SDS011;26497;52.494;7.546;2023-12-04T03:25:45;1999.90;;;999.90;;
40787;SDS011;26497;52.494;7.546;2023-12-04T03:28:12;1999.90;;;999.90;;
40787;SDS011;26497;52.494;7.546;2023-12-04T03:30:42;1999.90;;;999.90;;
40787;SDS011;26497;52.494;7.546;2023-12-04T03:33:19;1999.90;;;999.90;;
40787;SDS011;26497;52.494;7.546;2023-12-04T03:35:46;1999.90;;;999.90;;
40787;SDS011;26497;52.494;7.546;2023-12-04T03:38:13;1999.90;;;999.90;;
40787;SDS011;26497;52.494;7.546;2023-12-04T03:40:40;1999.90;;;999.90;;
40787;SDS011;26497;52.494;7.546;2023-12-04T03:43:07;1999.90;;;999.90;;
40787;SDS011;26497;52.494;7.546;2023-12-04T03:45:34;1999.90;;;999.90;;
40787;SDS011;26497;52.494;7.546;2023-12-04T03:48:03;1999.90;;;999.90;;
40787;SDS011;26497;52.494;7.546;2023-12-04T03:50:30;1999.90;;;999.90;;
40787;SDS011;26497;52.494;7.546;2023-12-04T03:52:57;1999.90;;;999.90;;
40787;SDS011;26497;52.494;7.546;2023-12-04T03:55:24;1999.90;;;999.90;;
40787;SDS011;26497;52.494;7.546;2023-12-04T03:57:51;1999.90;;;999.90;;
40787;SDS011;26497;52.494;7.546;2023-12-04T04:00:19;1999.90;;;999.90;;
40787;SDS011;26497;52.494;7.546;2023-12-04T04:02:46;1999.90;;;999.90;;
40787;SDS011;26497;52.494;7.546;2023-12-04T04:05:15;1999.90;;;999.90;;
40787;SDS011;26497;52.494;7.546;2023-12-04T04:07:42;1999.90;;;999.90;;
40787;SDS011;26497;52.494;7.546;2023-12-04T04:10:09;1999.90;;;999.90;;
40787;SDS011;26497;52.494;7.546;2023-12-04T04:12:37;1999.90;;;999.90;;
40787;SDS011;26497;52.494;7.546;2023-12-04T04:15:04;1999.90;;;999.90;;
40787;SDS011;26497;52.494;7.546;2023-12-04T04:17:31;1999.90;;;999.90;;
40787;SDS011;26497;52.494;7.546;2023-12-04T04:19:59;1999.90;;;999.90;;
40787;SDS011;26497;52.494;7.546;2023-12-04T04:22:27;1999.90;;;999.90;;
40787;SDS011;26497;52.494;7.546;2023-12-04T04:24:54;1999.90;;;999.90;;
40787;SDS011;26497;52.494;7.546;2023-12-04T04:27:22;1999.90;;;999.90;;
40787;SDS011;26497;52.494;7.546;2023-12-04T04:29:49;1999.90;;;999.90;;
40787;SDS011;26497;52.494;7.546;2023-12-04T04:32:16;1999.90;;;999.90;;
40787;SDS011;26497;52.494;7.546;2023-12-04T04:34:43;1999.90;;;999.90;;
40787;SDS011;26497;52.494;7.546;2023-12-04T04:37:10;1999.90;;;999.90;;
40787;SDS011;26497;52.494;7.546;2023-12-04T04:39:39;1999.90;;;999.90;;
40787;SDS011;26497;52.494;7.546;2023-12-04T04:42:06;1999.90;;;999.90;;
40787;SDS011;26497;52.494;7.546;2023-12-04T04:44:33;1999.90;;;999.90;;
40787;SDS011;26497;52.494;7.546;2023-12-04T04:47:00;1999.90;;;999.90;;
40787;SDS011;26497;52.494;7.546;2023-12-04T04:49:27;1999.90;;;999.90;;
40787;SDS011;26497;52.494;7.546;2023-12-04T04:51:54;1999.90;;;999.90;;
40787;SDS011;26497;52.494;7.546;2023-12-04T04:54:22;1999.90;;;999.90;;
40787;SDS011;26497;52.494;7.546;2023-12-04T04:56:50;1999.90;;;999.90;;
40787;SDS011;26497;52.494;7.546;2023-12-04T04:59:17;1999.90;;;999.90;;
40787;SDS011;26497;52.494;7.546;2023-12-04T05:01:44;1999.90;;;999.90;;
40787;SDS011;26497;52.494;7.546;2023-12-04T05:04:11;1999.90;;;999.90;;
40787;SDS011;26497;52.494;7.546;2023-12-04T05:06:38;1999.90;;;999.90;;
40787;SDS011;26497;52.494;7.546;2023-12-04T05:09:05;1999.90;;;999.90;;
40787;SDS011;26497;52.494;7.546;2023-12-04T05:11:32;1999.90;;;999.90;;
40787;SDS011;26497;52.494;7.546;2023-12-04T05:14:01;1999.90;;;999.90;;
40787;SDS011;26497;52.494;7.546;2023-12-04T05:16:28;1999.90;;;999.90;;
40787;SDS011;26497;52.494;7.546;2023-12-04T05:18:55;1999.90;;;999.90;;
40787;SDS011;26497;52.494;7.546;2023-12-04T05:21:22;1999.90;;;999.90;;
40787;SDS011;26497;52.494;7.546;2023-12-04T05:23:49;1999.90;;;999.90;;
40787;SDS011;26497;52.494;7.546;2023-12-04T05:26:16;1999.90;;;999.90;;
40787;SDS011;26497;52.494;7.546;2023-12-04T05:28:43;1999.90;;;999.90;;
40787;SDS011;26497;52.494;7.546;2023-12-04T05:31:12;1999.90;;;999.90;;
40787;SDS011;26497;52.494;7.546;2023-12-04T05:33:39;1999.90;;;999.90;;
40787;SDS011;26497;52.494;7.546;2023-12-04T05:36:07;1999.90;;;999.90;;
40787;SDS011;26497;52.494;7.546;2023-12-04T05:38:35;1999.90;;;999.90;;
40787;SDS011;26497;52.494;7.546;2023-12-04T05:41:02;1999.90;;;999.90;;
40787;SDS011;26497;52.494;7.546;2023-12-04T05:43:29;1999.90;;;999.90;;
40787;SDS011;26497;52.494;7.546;2023-12-04T05:45:56;1999.90;;;999.90;;
40787;SDS011;26497;52.494;7.546;2023-12-04T05:48:25;1999.90;;;999.90;;
40787;SDS011;26497;52.494;7.546;2023-12-04T05:50:52;1999.90;;;999.90;;
40787;SDS011;26497;52.494;7.546;2023-12-04T05:53:19;1999.90;;;999.90;;
40787;SDS011;26497;52.494;7.546;2023-12-04T05:55:46;1999.90;;;999.90;;
40787;SDS011;26497;52.494;7.546;2023-12-04T05:58:13;1999.90;;;999.90;;
40787;SDS011;26497;52.494;7.546;2023-12-04T06:00:40;1999.90;;;999.90;;
40787;SDS011;26497;52.494;7.546;2023-12-04T06:03:07;1999.90;;;999.90;;
40787;SDS011;26497;52.494;7.546;2023-12-04T06:05:36;1999.90;;;999.90;;
40787;SDS011;26497;52.494;7.546;2023-12-04T06:08:09;1999.90;;;999.90;;
40787;SDS011;26497;52.494;7.546;2023-12-04T06:10:36;1999.90;;;999.90;;
40787;SDS011;26497;52.494;7.546;2023-12-04T06:13:03;1999.90;;;999.90;;
40787;SDS011;26497;52.494;7.546;2023-12-04T06:15:30;1999.90;;;999.90;;
40787;SDS011;26497;52.494;7.546;2023-12-04T06:17:57;1999.90;;;999.90;;
40787;SDS011;26497;52.494;7.546;2023-12-04T06:20:24;1999.90;;;999.90;;
40787;SDS011;26497;52.494;7.546;2023-12-04T06:22:53;1999.90;;;999.90;;
40787;SDS011;26497;52.494;7.546;2023-12-04T06:25:21;1999.90;;;999.90;;
40787;SDS011;26497;52.494;7.546;2023-12-04T06:27:49;1999.90;;;999.90;;
40787;SDS011;26497;52.494;7.546;2023-12-04T06:30:17;1999.90;;;999.90;;
40787;SDS011;26497;52.494;7.546;2023-12-04T06:32:46;1999.90;;;999.90;;
40787;SDS011;26497;52.494;7.546;2023-12-04T06:35:14;1999.90;;;999.90;;
40787;SDS011;26497;52.494;7.546;2023-12-04T06:37:42;246.70;;;230.85;;
40787;SDS011;26497;52.494;7.546;2023-12-04T06:40:13;252.68;;;236.65;;
40787;SDS011;26497;52.494;7.546;2023-12-04T06:42:40;249.38;;;233.57;;
40787;SDS011;26497;52.494;7.546;2023-12-04T06:45:08;253.48;;;237.18;;
40787;SDS011;26497;52.494;7.546;2023-12-04T06:47:37;256.27;;;240.43;;
40787;SDS011;26497;52.494;7.546;2023-12-04T06:50:09;252.65;;;236.55;;
40787;SDS011;26497;52.494;7.546;2023-12-04T06:52:36;256.85;;;240.40;;
40787;SDS011;26497;52.494;7.546;2023-12-04T06:55:03;258.15;;;242.13;;
40787;SDS011;26497;52.494;7.546;2023-12-04T06:57:33;256.42;;;240.45;;
40787;SDS011;26497;52.494;7.546;2023-12-04T07:00:00;252.45;;;236.25;;
40787;SDS011;26497;52.494;7.546;2023-12-04T07:02:28;253.80;;;237.55;;
40787;SDS011;26497;52.494;7.546;2023-12-04T07:04:55;259.25;;;242.55;;
40787;SDS011;26497;52.494;7.546;2023-12-04T07:07:22;261.23;;;244.95;;
40787;SDS011;26497;52.494;7.546;2023-12-04T07:09:49;260.73;;;244.55;;
40787;SDS011;26497;52.494;7.546;2023-12-04T07:12:16;261.33;;;245.10;;
40787;SDS011;26497;52.494;7.546;2023-12-04T07:14:45;258.25;;;242.23;;
40787;SDS011;26497;52.494;7.546;2023-12-04T07:17:12;260.77;;;244.45;;
40787;SDS011;26497;52.494;7.546;2023-12-04T07:19:40;264.77;;;248.07;;
40787;SDS011;26497;52.494;7.546;2023-12-04T07:22:08;269.58;;;252.90;;
40787;SDS011;26497;52.494;7.546;2023-12-04T07:24:35;267.58;;;251.27;;
40787;SDS011;26497;52.494;7.546;2023-12-04T07:27:02;260.48;;;244.30;;
40787;SDS011;26497;52.494;7.546;2023-12-04T07:29:30;263.88;;;247.52;;
40787;SDS011;26497;52.494;7.546;2023-12-04T07:31:58;264.00;;;247.80;;
40787;SDS011;26497;52.494;7.546;2023-12-04T07:34:25;269.85;;;253.48;;
40787;SDS011;26497;52.494;7.546;2023-12-04T07:36:53;260.45;;;244.73;;
40787;SDS011;26497;52.494;7.546;2023-12-04T07:39:20;269.33;;;252.75;;
40787;SDS011;26497;52.494;7.546;2023-12-04T07:41:47;270.10;;;253.10;;
40787;SDS011;26497;52.494;7.546;2023-12-04T07:44:14;271.52;;;254.73;;
40787;SDS011;26497;52.494;7.546;2023-12-04T07:46:42;268.60;;;252.57;;
40787;SDS011;26497;52.494;7.546;2023-12-04T07:49:10;269.13;;;252.90;;
40787;SDS011;26497;52.494;7.546;2023-12-04T07:51:37;274.90;;;258.08;;
40787;SDS011;26497;52.494;7.546;2023-12-04T07:54:04;270.90;;;253.88;;
40787;SDS011;26497;52.494;7.546;2023-12-04T07:56:31;278.85;;;261.95;;
40787;SDS011;26497;52.494;7.546;2023-12-04T07:58:58;280.77;;;263.77;;
40787;SDS011;26497;52.494;7.546;2023-12-04T08:01:25;280.30;;;263.35;;
40787;SDS011;26497;52.494;7.546;2023-12-04T08:03:52;279.40;;;262.15;;
40787;SDS011;26497;52.494;7.546;2023-12-04T08:06:21;276.48;;;259.58;;
40787;SDS011;26497;52.494;7.546;2023-12-04T08:08:48;280.63;;;263.73;;
40787;SDS011;26497;52.494;7.546;2023-12-04T08:11:15;278.98;;;261.65;;
40787;SDS011;26497;52.494;7.546;2023-12-04T08:13:43;288.70;;;271.48;;
40787;SDS011;26497;52.494;7.546;2023-12-04T08:16:13;281.38;;;264.17;;
40787;SDS011;26497;52.494;7.546;2023-12-04T08:18:41;288.90;;;271.70;;
40787;SDS011;26497;52.494;7.546;2023-12-04T08:21:08;293.92;;;276.58;;
40787;SDS011;26497;52.494;7.546;2023-12-04T08:23:38;283.63;;;266.92;;
40787;SDS011;26497;52.494;7.546;2023-12-04T08:26:05;283.50;;;266.58;;
40787;SDS011;26497;52.494;7.546;2023-12-04T08:28:33;287.80;;;270.70;;
40787;SDS011;26497;52.494;7.546;2023-12-04T08:31:02;290.38;;;272.70;;
40787;SDS011;26497;52.494;7.546;2023-12-04T08:33:30;289.02;;;272.02;;
40787;SDS011;26497;52.494;7.546;2023-12-04T08:35:57;289.90;;;272.52;;
40787;SDS011;26497;52.494;7.546;2023-12-04T08:38:24;290.73;;;272.98;;
40787;SDS011;26497;52.494;7.546;2023-12-04T08:40:52;287.00;;;270.50;;
40787;SDS011;26497;52.494;7.546;2023-12-04T08:43:19;282.48;;;265.77;;
40787;SDS011;26497;52.494;7.546;2023-12-04T08:45:46;285.40;;;268.67;;
40787;SDS011;26497;52.494;7.546;2023-12-04T08:48:16;283.42;;;266.60;;
40787;SDS011;26497;52.494;7.546;2023-12-04T08:50:43;287.92;;;271.10;;
40787;SDS011;26497;52.494;7.546;2023-12-04T08:53:10;283.00;;;266.17;;
40787;SDS011;26497;52.494;7.546;2023-12-04T08:55:37;282.90;;;266.55;;
40787;SDS011;26497;52.494;7.546;2023-12-04T08:58:06;283.60;;;266.88;;
40787;SDS011;26497;52.494;7.546;2023-12-04T09:00:33;281.42;;;264.70;;
40787;SDS011;26497;52.494;7.546;2023-12-04T09:03:02;277.30;;;260.92;;
40787;SDS011;26497;52.494;7.546;2023-12-04T09:05:30;273.60;;;258.02;;
40787;SDS011;26497;52.494;7.546;2023-12-04T09:07:57;273.50;;;257.60;;
40787;SDS011;26497;52.494;7.546;2023-12-04T09:10:25;272.65;;;256.92;;
40787;SDS011;26497;52.494;7.546;2023-12-04T09:12:52;261.27;;;246.18;;
40787;SDS011;26497;52.494;7.546;2023-12-04T09:15:21;260.52;;;245.43;;
40787;SDS011;26497;52.494;7.546;2023-12-04T09:17:48;257.42;;;242.30;;
40787;SDS011;26497;52.494;7.546;2023-12-04T09:20:15;247.35;;;233.07;;
40787;SDS011;26497;52.494;7.546;2023-12-04T09:22:42;243.93;;;229.82;;
40787;SDS011;26497;52.494;7.546;2023-12-04T09:25:09;239.15;;;225.18;;
40787;SDS011;26497;52.494;7.546;2023-12-04T09:27:37;221.70;;;208.90;;
40787;SDS011;26497;52.494;7.546;2023-12-04T09:30:04;225.15;;;212.30;;
40787;SDS011;26497;52.494;7.546;2023-12-04T09:32:35;215.50;;;203.00;;
40787;SDS011;26497;52.494;7.546;2023-12-04T09:35:02;212.50;;;200.05;;
40787;SDS011;26497;52.494;7.546;2023-12-04T09:37:29;199.52;;;187.73;;
40787;SDS011;26497;52.494;7.546;2023-12-04T09:39:56;198.68;;;187.07;;
40787;SDS011;26497;52.494;7.546;2023-12-04T09:42:23;193.35;;;181.85;;
40787;SDS011;26497;52.494;7.546;2023-12-04T09:44:51;189.60;;;177.98;;
40787;SDS011;26497;52.494;7.546;2023-12-04T09:47:19;189.77;;;178.02;;
40787;SDS011;26497;52.494;7.546;2023-12-04T09:49:49;188.52;;;177.13;;
40787;SDS011;26497;52.494;7.546;2023-12-04T09:52:19;183.75;;;172.57;;
40787;SDS011;26497;52.494;7.546;2023-12-04T09:54:46;178.40;;;167.70;;
40787;SDS011;26497;52.494;7.546;2023-12-04T09:57:14;176.20;;;165.70;;
40787;SDS011;26497;52.494;7.546;2023-12-04T09:59:43;175.55;;;165.02;;
40787;SDS011;26497;52.494;7.546;2023-12-04T10:02:11;170.45;;;159.73;;
40787;SDS011;26497;52.494;7.546;2023-12-04T10:04:38;167.52;;;157.35;;
40787;SDS011;26497;52.494;7.546;2023-12-04T10:07:07;175.38;;;164.60;;
40787;SDS011;26497;52.494;7.546;2023-12-04T10:09:34;178.48;;;167.57;;
40787;SDS011;26497;52.494;7.546;2023-12-04T10:12:01;177.90;;;167.07;;
40787;SDS011;26497;52.494;7.546;2023-12-04T10:14:30;177.77;;;166.68;;
40787;SDS011;26497;52.494;7.546;2023-12-04T10:16:57;167.60;;;157.52;;
40787;SDS011;26497;52.494;7.546;2023-12-04T10:19:25;165.15;;;154.70;;
40787;SDS011;26497;52.494;7.546;2023-12-04T10:21:55;156.55;;;146.75;;
40787;SDS011;26497;52.494;7.546;2023-12-04T10:24:30;153.55;;;143.43;;
40787;SDS011;26497;52.494;7.546;2023-12-04T10:26:59;154.98;;;145.45;;
40787;SDS011;26497;52.494;7.546;2023-12-04T10:29:27;152.90;;;142.98;;
40787;SDS011;26497;52.494;7.546;2023-12-04T10:31:57;142.48;;;133.65;;
40787;SDS011;26497;52.494;7.546;2023-12-04T10:34:25;142.88;;;133.85;;
40787;SDS011;26497;52.494;7.546;2023-12-04T10:36:53;138.40;;;130.00;;
40787;SDS011;26497;52.494;7.546;2023-12-04T10:39:23;136.95;;;128.25;;
40787;SDS011;26497;52.494;7.546;2023-12-04T10:42:01;134.40;;;125.50;;
40787;SDS011;26497;52.494;7.546;2023-12-04T10:44:29;133.02;;;124.50;;
40787;SDS011;26497;52.494;7.546;2023-12-04T10:46:57;121.47;;;113.75;;
40787;SDS011;26497;52.494;7.546;2023-12-04T10:49:27;120.40;;;112.90;;
40787;SDS011;26497;52.494;7.546;2023-12-04T10:51:55;120.35;;;112.38;;
40787;SDS011;26497;52.494;7.546;2023-12-04T10:54:24;116.53;;;109.03;;
40787;SDS011;26497;52.494;7.546;2023-12-04T10:56:52;115.50;;;107.80;;
40787;SDS011;26497;52.494;7.546;2023-12-04T10:59:26;113.30;;;105.95;;
40787;SDS011;26497;52.494;7.546;2023-12-04T11:01:58;116.05;;;106.70;;
40787;SDS011;26497;52.494;7.546;2023-12-04T11:04:31;112.03;;;103.75;;
40787;SDS011;26497;52.494;7.546;2023-12-04T11:07:02;107.45;;;100.35;;
40787;SDS011;26497;52.494;7.546;2023-12-04T11:09:30;105.38;;;98.40;;
40787;SDS011;26497;52.494;7.546;2023-12-04T11:12:02;98.47;;;91.85;;
40787;SDS011;26497;52.494;7.546;2023-12-04T11:14:41;94.07;;;87.90;;
40787;SDS011;26497;52.494;7.546;2023-12-04T11:17:15;94.90;;;88.47;;
40787;SDS011;26497;52.494;7.546;2023-12-04T11:19:47;92.85;;;86.07;;
40787;SDS011;26497;52.494;7.546;2023-12-04T11:22:21;91.15;;;84.35;;
40787;SDS011;26497;52.494;7.546;2023-12-04T11:24:50;84.20;;;78.47;;
40787;SDS011;26497;52.494;7.546;2023-12-04T11:27:18;82.13;;;76.57;;
40787;SDS011;26497;52.494;7.546;2023-12-04T11:29:48;79.00;;;73.55;;
40787;SDS011;26497;52.494;7.546;2023-12-04T11:32:15;76.78;;;71.45;;
40787;SDS011;26497;52.494;7.546;2023-12-04T11:34:49;73.28;;;67.90;;
40787;SDS011;26497;52.494;7.546;2023-12-04T11:37:19;66.80;;;62.45;;
40787;SDS011;26497;52.494;7.546;2023-12-04T11:39:46;72.30;;;66.97;;
40787;SDS011;26497;52.494;7.546;2023-12-04T11:42:18;65.57;;;61.10;;
40787;SDS011;26497;52.494;7.546;2023-12-04T11:44:48;63.20;;;58.70;;
40787;SDS011;26497;52.494;7.546;2023-12-04T11:47:16;63.17;;;58.88;;
40787;SDS011;26497;52.494;7.546;2023-12-04T11:49:44;63.65;;;58.28;;
40787;SDS011;26497;52.494;7.546;2023-12-04T11:52:11;63.53;;;58.20;;
40787;SDS011;26497;52.494;7.546;2023-12-04T11:54:57;61.88;;;57.03;;
40787;SDS011;26497;52.494;7.546;2023-12-04T11:57:31;62.55;;;57.80;;
40787;SDS011;26497;52.494;7.546;2023-12-04T12:02:50;61.92;;;57.22;;
40787;SDS011;26497;52.494;7.546;2023-12-04T12:05:31;61.13;;;56.67;;
40787;SDS011;26497;52.494;7.546;2023-12-04T12:08:00;58.47;;;54.00;;
40787;SDS011;26497;52.494;7.546;2023-12-04T12:10:28;56.97;;;52.75;;
40787;SDS011;26497;52.494;7.546;2023-12-04T12:12:56;52.33;;;48.67;;
40787;SDS011;26497;52.494;7.546;2023-12-04T12:15:25;49.08;;;45.22;;
40787;SDS011;26497;52.494;7.546;2023-12-04T12:17:52;50.95;;;47.15;;
40787;SDS011;26497;52.494;7.546;2023-12-04T12:20:19;47.97;;;44.35;;
40787;SDS011;26497;52.494;7.546;2023-12-04T12:22:47;44.72;;;41.15;;
40787;SDS011;26497;52.494;7.546;2023-12-04T12:25:15;48.67;;;40.83;;
40787;SDS011;26497;52.494;7.546;2023-12-04T12:27:44;43.85;;;40.17;;
40787;SDS011;26497;52.494;7.546;2023-12-04T12:30:12;44.13;;;40.60;;
40787;SDS011;26497;52.494;7.546;2023-12-04T12:32:41;39.85;;;36.67;;
40787;SDS011;26497;52.494;7.546;2023-12-04T12:35:08;38.78;;;35.60;;
40787;SDS011;26497;52.494;7.546;2023-12-04T12:37:35;36.72;;;33.88;;
40787;SDS011;26497;52.494;7.546;2023-12-04T12:40:05;35.83;;;32.80;;
40787;SDS011;26497;52.494;7.546;2023-12-04T12:42:35;36.60;;;33.10;;
40787;SDS011;26497;52.494;7.546;2023-12-04T12:45:19;34.17;;;30.85;;
40787;SDS011;26497;52.494;7.546;2023-12-04T12:47:47;33.63;;;30.50;;
40787;SDS011;26497;52.494;7.546;2023-12-04T12:50:16;32.13;;;29.38;;
40787;SDS011;26497;52.494;7.546;2023-12-04T12:52:43;33.72;;;30.25;;
40787;SDS011;26497;52.494;7.546;2023-12-04T12:55:10;32.80;;;29.77;;
40787;SDS011;26497;52.494;7.546;2023-12-04T12:57:48;32.90;;;30.10;;
40787;SDS011;26497;52.494;7.546;2023-12-04T13:00:15;34.17;;;31.17;;
40787;SDS011;26497;52.494;7.546;2023-12-04T13:02:44;32.58;;;29.95;;
40787;SDS011;26497;52.494;7.546;2023-12-04T13:05:12;37.42;;;29.48;;
40787;SDS011;26497;52.494;7.546;2023-12-04T13:07:42;33.08;;;30.27;;
40787;SDS011;26497;52.494;7.546;2023-12-04T13:10:09;33.47;;;30.45;;
40787;SDS011;26497;52.494;7.546;2023-12-04T13:12:36;35.75;;;32.30;;
40787;SDS011;26497;52.494;7.546;2023-12-04T13:15:04;37.33;;;33.28;;
40787;SDS011;26497;52.494;7.546;2023-12-04T13:17:32;34.33;;;31.38;;
40787;SDS011;26497;52.494;7.546;2023-12-04T13:19:59;37.92;;;34.30;;
40787;SDS011;26497;52.494;7.546;2023-12-04T13:22:28;36.60;;;33.42;;
40787;SDS011;26497;52.494;7.546;2023-12-04T13:24:55;38.70;;;35.53;;
40787;SDS011;26497;52.494;7.546;2023-12-04T13:27:22;37.05;;;33.85;;
40787;SDS011;26497;52.494;7.546;2023-12-04T13:29:49;37.05;;;34.10;;
40787;SDS011;26497;52.494;7.546;2023-12-04T13:32:16;33.95;;;31.02;;
40787;SDS011;26497;52.494;7.546;2023-12-04T13:34:43;33.58;;;30.77;;
40787;SDS011;26497;52.494;7.546;2023-12-04T13:37:11;31.88;;;29.23;;
40787;SDS011;26497;52.494;7.546;2023-12-04T13:39:40;31.23;;;28.70;;
40787;SDS011;26497;52.494;7.546;2023-12-04T13:42:13;30.23;;;27.35;;
40787;SDS011;26497;52.494;7.546;2023-12-04T13:44:58;33.88;;;30.58;;
40787;SDS011;26497;52.494;7.546;2023-12-04T13:47:26;31.60;;;28.73;;
40787;SDS011;26497;52.494;7.546;2023-12-04T13:49:56;41.85;;;32.47;;
40787;SDS011;26497;52.494;7.546;2023-12-04T13:52:23;35.72;;;28.30;;
40787;SDS011;26497;52.494;7.546;2023-12-04T13:54:56;28.98;;;26.23;;
40787;SDS011;26497;52.494;7.546;2023-12-04T13:57:42;27.13;;;24.92;;
40787;SDS011;26497;52.494;7.546;2023-12-04T14:00:23;30.50;;;27.52;;
40787;SDS011;26497;52.494;7.546;2023-12-04T14:02:50;48.72;;;39.38;;
40787;SDS011;26497;52.494;7.546;2023-12-04T14:05:18;29.90;;;27.00;;